createdAt,value
2019-03-05T00:01:10.921Z,75.14
2019-03-05T00:03:39.259Z,74.74
2019-03-05T00:06:07.645Z,74.86
2019-03-05T00:08:36.033Z,74.59
2019-03-05T00:11:06.145Z,74.24
2019-03-05T00:13:34.529Z,74.21
2019-03-05T00:16:02.927Z,73.93
2019-03-05T00:18:31.316Z,74.46
2019-03-05T00:20:59.722Z,74.06
2019-03-05T00:23:34.098Z,74.20
2019-03-05T00:26:02.502Z,74.42
2019-03-05T00:28:52.267Z,74.51
2019-03-05T00:31:29.985Z,74.42
2019-03-05T00:34:31.771Z,73.97
2019-03-05T00:37:09.048Z,74.42
2019-03-05T00:39:49.306Z,74.68
2019-03-05T00:42:54.169Z,74.56
2019-03-05T00:45:43.738Z,74.78
2019-03-05T00:48:47.969Z,74.77
2019-03-05T00:51:46.622Z,75.02
2019-03-05T00:54:34.814Z,74.34
2019-03-05T00:57:08.898Z,74.11
2019-03-05T00:59:40.347Z,75.03
2019-03-05T01:02:17.482Z,74.74
2019-03-05T01:05:03.834Z,75.48
2019-03-05T01:07:32.248Z,75.97
2019-03-05T01:10:00.631Z,77.03
2019-03-05T01:12:29.091Z,77.40
2019-03-05T01:14:59.261Z,77.79
2019-03-05T01:17:27.645Z,78.10
2019-03-05T01:19:56.040Z,78.42
2019-03-05T01:22:24.728Z,78.77
2019-03-05T01:24:53.119Z,79.34
2019-03-05T01:27:21.518Z,79.73
2019-03-05T01:29:49.907Z,79.90
2019-03-05T01:32:20.836Z,81.50
2019-03-05T01:35:07.074Z,82.54
2019-03-05T01:37:35.475Z,83.09
2019-03-05T01:40:06.442Z,83.59
2019-03-05T01:42:34.943Z,83.81
2019-03-05T01:45:04.513Z,83.95
2019-03-05T01:47:33.021Z,85.00
2019-03-05T01:50:01.528Z,85.75
2019-03-05T01:52:29.984Z,86.75
2019-03-05T01:54:58.373Z,87.45
2019-03-05T01:57:26.784Z,88.10
2019-03-05T01:59:55.184Z,88.55
2019-03-05T02:02:23.582Z,89.12
2019-03-05T02:04:52.062Z,89.71
2019-03-05T02:07:20.536Z,90.31
2019-03-05T02:09:48.927Z,90.89
2019-03-05T02:12:17.326Z,91.24
2019-03-05T02:14:45.715Z,91.19
2019-03-05T02:17:14.117Z,90.38
2019-03-05T02:19:44.547Z,90.27
2019-03-05T02:22:25.255Z,89.63
2019-03-05T02:25:02.043Z,90.37
2019-03-05T02:27:52.841Z,91.06
2019-03-05T02:30:24.281Z,92.18
2019-03-05T02:33:12.616Z,92.24
2019-03-05T02:35:56.140Z,92.07
2019-03-05T02:38:33.488Z,92.50
2019-03-05T02:41:13.854Z,92.07
2019-03-05T02:43:57.164Z,91.67
2019-03-05T02:46:40.377Z,91.82
2019-03-05T02:49:17.859Z,92.09
2019-03-05T02:52:04.353Z,92.55
2019-03-05T02:54:50.970Z,92.67
2019-03-05T02:57:18.511Z,92.60
2019-03-05T02:59:46.903Z,91.92
2019-03-05T03:02:32.083Z,91.24
2019-03-05T03:05:05.060Z,90.70
2019-03-05T03:07:33.488Z,90.70
2019-03-05T03:12:49.792Z,89.43
2019-03-05T03:15:58.088Z,89.60
2019-03-05T03:18:26.494Z,89.50
2019-03-05T03:20:54.884Z,88.68
2019-03-05T03:23:42.544Z,88.75
2019-03-05T03:26:10.927Z,88.73
2019-03-05T03:28:58.665Z,88.91
2019-03-05T03:31:46.310Z,88.60
2019-03-05T03:34:14.838Z,88.58
2019-03-05T03:39:32.267Z,88.11
2019-03-05T03:42:00.665Z,87.77
2019-03-05T03:44:29.071Z,87.79
2019-03-05T03:46:57.466Z,87.57
2019-03-05T03:49:45.116Z,87.34
2019-03-05T03:52:32.760Z,87.37
2019-03-05T03:55:20.408Z,87.08
2019-03-05T03:58:28.724Z,86.71
2019-03-05T04:01:16.369Z,86.70
2019-03-05T04:03:44.767Z,86.56
2019-03-05T04:06:13.154Z,85.69
2019-03-05T04:08:41.560Z,85.61
2019-03-05T04:11:29.186Z,85.24
2019-03-05T04:14:16.709Z,85.35
2019-03-05T04:17:04.358Z,84.43
2019-03-05T04:22:11.498Z,83.91
2019-03-05T04:24:39.900Z,83.17
2019-03-05T04:27:27.646Z,82.92
2019-03-05T04:29:56.050Z,82.99
2019-03-05T04:32:43.687Z,83.42
2019-03-05T04:35:52.002Z,83.60
2019-03-05T04:38:39.519Z,83.13
2019-03-05T04:41:07.917Z,83.30
2019-03-05T04:43:36.317Z,83.28
2019-03-05T04:54:08.549Z,83.93
2019-03-05T04:56:36.944Z,83.97
2019-03-05T04:59:24.469Z,83.55
2019-03-05T05:01:52.858Z,83.74
2019-03-05T05:04:40.508Z,84.28
2019-03-05T05:07:28.138Z,84.31
2019-03-05T05:09:56.535Z,84.23
2019-03-05T05:12:24.926Z,85.03
2019-03-05T05:14:53.334Z,87.16
2019-03-05T05:17:40.857Z,88.18
2019-03-05T05:20:09.259Z,89.09
2019-03-05T05:22:37.654Z,88.77
2019-03-05T05:25:25.460Z,89.34
2019-03-05T05:28:33.775Z,89.82
2019-03-05T05:33:35.909Z,89.97
2019-03-05T05:41:12.645Z,92.29
2019-03-05T05:43:41.034Z,93.60
2019-03-05T05:46:11.167Z,93.90
2019-03-05T05:48:58.689Z,93.58
2019-03-05T05:51:46.336Z,93.42
2019-03-05T05:54:14.736Z,92.92
2019-03-05T05:59:49.943Z,92.98
2019-03-05T06:02:37.459Z,93.39
2019-03-05T06:05:45.789Z,93.30
2019-03-05T06:08:33.428Z,93.29
2019-03-05T06:11:21.092Z,93.28
2019-03-05T06:13:49.494Z,93.37
2019-03-05T06:16:17.940Z,94.19
2019-03-05T06:19:05.474Z,94.07
2019-03-05T06:21:53.136Z,93.51
2019-03-05T06:27:08.982Z,93.25
2019-03-05T06:29:37.380Z,92.87
2019-03-05T06:32:05.781Z,92.25
2019-03-05T06:34:34.175Z,92.38
2019-03-05T06:37:02.569Z,92.04
2019-03-05T06:39:30.959Z,91.95
2019-03-05T06:42:18.480Z,91.67
2019-03-05T06:47:21.211Z,91.62
2019-03-05T06:49:49.611Z,91.50
2019-03-05T06:52:18.003Z,90.99
2019-03-05T06:55:05.658Z,90.90
2019-03-05T06:57:34.053Z,90.86
2019-03-05T07:02:57.086Z,90.66
2019-03-05T07:06:04.175Z,90.54
2019-03-05T07:08:32.566Z,90.10
2019-03-05T07:11:40.874Z,89.66
2019-03-05T07:14:49.179Z,90.05
2019-03-05T07:17:56.166Z,88.23
2019-03-05T07:21:04.486Z,87.97
2019-03-05T07:24:11.704Z,88.22
2019-03-05T07:26:40.107Z,87.58
2019-03-05T07:29:27.765Z,87.70
2019-03-05T07:31:56.170Z,87.76
2019-03-05T07:37:53.560Z,85.79
2019-03-05T07:40:41.189Z,85.60
2019-03-05T07:43:09.584Z,84.76
2019-03-05T07:45:57.217Z,83.55
2019-03-05T07:48:25.621Z,81.49
2019-03-05T07:51:13.345Z,80.71
2019-03-05T07:54:01.006Z,80.46
2019-03-05T07:56:48.643Z,80.34
2019-03-05T07:59:36.290Z,81.99
2019-03-05T08:04:58.948Z,83.98
2019-03-05T08:07:27.361Z,83.99
2019-03-05T08:10:34.337Z,84.29
2019-03-05T08:13:42.652Z,84.40
2019-03-05T08:16:30.163Z,84.61
2019-03-05T08:18:58.570Z,84.60
2019-03-05T08:21:26.960Z,84.69
2019-03-05T08:24:35.282Z,85.16
2019-03-05T08:27:03.673Z,85.15
2019-03-05T08:29:51.571Z,84.24
2019-03-05T08:37:29.542Z,82.59
2019-03-05T08:50:49.091Z,80.82
2019-03-05T08:53:17.496Z,79.11
2019-03-05T08:55:45.885Z,78.27
2019-03-05T08:58:54.195Z,77.23
2019-03-05T09:01:22.587Z,78.00
2019-03-05T09:04:10.239Z,76.65
2019-03-05T09:06:38.625Z,76.49
2019-03-05T09:09:46.956Z,76.30
2019-03-05T09:12:15.342Z,75.83
2019-03-05T09:14:43.743Z,76.29
2019-03-05T09:17:32.918Z,76.09
2019-03-05T09:20:01.323Z,76.36
2019-03-05T09:22:29.713Z,75.87
2019-03-05T09:24:58.218Z,76.31
2019-03-05T09:27:26.601Z,76.14
2019-03-05T09:30:14.245Z,76.60
2019-03-05T09:32:42.635Z,76.05
2019-03-05T09:35:51.200Z,75.37
2019-03-05T09:38:38.714Z,75.95
2019-03-05T09:41:07.107Z,75.23
2019-03-05T09:43:54.754Z,75.48
2019-03-05T09:46:23.144Z,72.21
2019-03-05T09:49:10.785Z,71.35
2019-03-05T09:51:58.294Z,70.78
2019-03-05T09:54:26.705Z,70.35
2019-03-05T09:57:14.329Z,70.02
2019-03-05T10:00:01.853Z,71.18
2019-03-05T10:05:59.233Z,73.71
2019-03-05T10:08:32.451Z,74.26
2019-03-05T10:11:37.655Z,74.18
2019-03-05T10:14:06.092Z,73.74
2019-03-05T10:16:34.487Z,72.54
2019-03-05T10:19:04.533Z,71.00
2019-03-05T10:24:20.443Z,71.62
2019-03-05T10:27:07.950Z,71.95
2019-03-05T10:29:36.345Z,70.08
2019-03-05T10:32:23.857Z,69.74
2019-03-05T10:34:52.254Z,69.21
2019-03-05T10:41:08.627Z,68.60
2019-03-05T10:44:16.942Z,68.16
2019-03-05T10:47:25.239Z,67.41
2019-03-05T10:50:33.556Z,66.60
2019-03-05T10:53:01.951Z,66.24
2019-03-05T10:56:10.253Z,65.95
2019-03-05T10:58:38.644Z,66.03
2019-03-05T11:01:26.382Z,65.69
2019-03-05T11:03:54.771Z,66.01
2019-03-05T11:06:23.174Z,65.55
2019-03-05T11:09:31.520Z,65.30
2019-03-05T11:12:39.889Z,66.28
2019-03-05T11:15:48.219Z,66.12
2019-03-05T11:21:43.857Z,65.38
2019-03-05T11:26:59.680Z,65.27
2019-03-05T11:32:34.633Z,65.21
2019-03-05T11:38:11.089Z,63.02
2019-03-05T11:41:19.405Z,62.57
2019-03-05T11:44:07.110Z,62.61
2019-03-05T11:46:35.516Z,61.74
2019-03-05T11:49:23.161Z,60.82
2019-03-05T11:54:25.788Z,61.69
2019-03-05T11:56:54.185Z,61.64
2019-03-05T11:59:41.823Z,61.88
2019-03-05T12:02:29.346Z,61.52
2019-03-05T12:04:57.735Z,61.68
2019-03-05T12:07:46.203Z,62.19
2019-03-05T12:10:34.912Z,61.59
2019-03-05T12:13:03.326Z,62.16
2019-03-05T12:16:11.670Z,62.99
2019-03-05T12:18:40.077Z,63.45
2019-03-05T12:21:27.746Z,62.62
2019-03-05T12:24:15.395Z,60.72
2019-03-05T12:26:43.802Z,58.85
2019-03-05T12:29:31.534Z,60.15
2019-03-05T12:32:19.203Z,59.05
2019-03-05T12:34:47.599Z,60.54
2019-03-05T12:40:09.080Z,59.98
2019-03-05T12:42:56.715Z,59.65
2019-03-05T12:46:05.044Z,59.96
2019-03-05T12:54:02.308Z,60.55
2019-03-05T12:56:49.841Z,59.97
2019-03-05T12:59:18.251Z,60.64
2019-03-05T13:02:05.915Z,61.31
2019-03-05T13:04:34.337Z,62.11
2019-03-05T13:07:22.000Z,62.44
2019-03-05T13:09:52.580Z,62.47
2019-03-05T13:12:20.547Z,61.42
2019-03-05T13:14:48.974Z,63.16
2019-03-05T13:17:17.373Z,67.47
2019-03-05T13:19:47.907Z,69.00
2019-03-05T13:24:50.314Z,72.91
2019-03-05T13:27:22.834Z,74.93
2019-03-05T13:29:50.588Z,75.77
2019-03-05T13:32:39.260Z,74.40
2019-03-05T13:35:47.568Z,73.43
2019-03-05T13:38:15.969Z,69.63
2019-03-05T13:40:44.373Z,68.73
2019-03-05T13:43:12.861Z,67.57
2019-03-05T13:45:43.922Z,65.68
2019-03-05T13:48:58.040Z,63.60
2019-03-05T13:52:00.708Z,64.54
2019-03-05T13:55:08.871Z,64.93
2019-03-05T13:58:17.197Z,64.37
2019-03-05T14:07:43.311Z,63.73
2019-03-05T14:10:51.640Z,63.53
2019-03-05T14:19:09.299Z,64.57
2019-03-05T14:21:37.709Z,64.38
2019-03-05T14:24:06.081Z,65.54
2019-03-05T14:29:41.249Z,67.07
2019-03-05T14:32:49.584Z,69.72
2019-03-05T14:35:57.872Z,71.79
2019-03-05T14:38:45.549Z,72.68
2019-03-05T14:41:33.302Z,74.34
2019-03-05T14:44:01.711Z,74.77
2019-03-05T14:49:38.172Z,73.53
2019-03-05T14:52:46.496Z,71.82
2019-03-05T14:55:54.795Z,71.08
2019-03-05T14:58:23.261Z,71.51
2019-03-05T15:04:20.665Z,72.00
2019-03-05T15:06:49.963Z,70.42
2019-03-05T15:09:38.278Z,68.44
2019-03-05T15:12:06.656Z,68.57
2019-03-05T15:14:35.138Z,68.77
2019-03-05T15:17:03.552Z,67.88
2019-03-05T15:19:51.496Z,68.64
2019-03-05T15:22:39.432Z,68.66
2019-03-05T15:25:47.749Z,68.35
2019-03-05T15:28:16.155Z,67.80
2019-03-05T15:31:24.478Z,68.85
2019-03-05T15:33:52.884Z,69.11
2019-03-05T15:36:23.904Z,69.50
2019-03-05T15:39:10.499Z,69.73
2019-03-05T15:41:58.244Z,69.40
2019-03-05T15:44:45.748Z,69.87
2019-03-05T15:47:33.550Z,70.29
2019-03-05T15:53:17.111Z,69.54
2019-03-05T15:55:45.461Z,68.90
2019-03-05T15:58:33.269Z,67.78
2019-03-05T16:01:22.587Z,67.77
2019-03-05T16:04:10.854Z,66.83
2019-03-05T16:09:46.160Z,68.11
2019-03-05T16:12:14.887Z,67.72
2019-03-05T16:15:05.200Z,67.51
2019-03-05T16:17:32.739Z,67.23
2019-03-05T16:20:01.430Z,66.78
2019-03-05T16:22:51.058Z,65.87
2019-03-05T16:25:59.395Z,66.08
2019-03-05T16:28:47.028Z,65.48
2019-03-05T16:34:29.699Z,66.27
2019-03-05T16:37:17.207Z,65.98
2019-03-05T16:45:18.466Z,67.88
2019-03-05T16:48:06.089Z,68.48
2019-03-05T16:50:53.863Z,68.43
2019-03-05T16:53:41.372Z,69.27
2019-03-05T16:59:43.040Z,69.28
2019-03-05T17:02:30.567Z,69.36
2019-03-05T17:07:53.484Z,69.13
2019-03-05T17:13:16.882Z,70.07
2019-03-05T17:15:45.276Z,71.19
2019-03-05T17:18:32.919Z,71.97
2019-03-05T17:21:41.247Z,71.18
2019-03-05T17:24:49.552Z,71.00
2019-03-05T17:27:17.942Z,70.76
2019-03-05T17:29:46.325Z,70.82
2019-03-05T17:35:48.935Z,70.97
2019-03-05T17:38:36.438Z,70.97
2019-03-05T17:41:44.765Z,70.98
2019-03-05T17:44:13.154Z,71.34
2019-03-05T17:47:00.801Z,71.46
2019-03-05T17:52:16.631Z,70.90
2019-03-05T17:55:04.272Z,70.62
2019-03-05T17:57:32.670Z,70.70
2019-03-05T18:03:09.683Z,71.67
2019-03-05T18:05:38.092Z,71.43
2019-03-05T18:08:08.235Z,72.68
2019-03-05T18:10:55.851Z,72.25
2019-03-05T18:13:43.491Z,72.80
2019-03-05T18:16:31.019Z,73.06
2019-03-05T18:18:59.400Z,72.90
2019-03-05T18:24:21.208Z,72.54
2019-03-05T18:26:49.611Z,72.82
2019-03-05T18:29:37.126Z,72.66
2019-03-05T18:32:24.808Z,72.96
2019-03-05T18:35:12.483Z,73.64
2019-03-05T18:37:40.951Z,73.43
2019-03-05T18:40:49.264Z,72.89
2019-03-05T18:43:36.915Z,72.53
2019-03-05T18:46:24.571Z,72.57
2019-03-05T18:49:12.205Z,72.71
2019-03-05T18:51:59.851Z,72.29
2019-03-05T18:54:47.494Z,72.65
2019-03-05T18:57:35.547Z,72.54
2019-03-05T19:00:44.605Z,73.01
2019-03-05T19:03:32.347Z,73.30
2019-03-05T19:06:19.994Z,72.69
2019-03-05T19:08:48.733Z,72.25
2019-03-05T19:14:11.695Z,72.69
2019-03-05T19:16:40.090Z,72.29
2019-03-05T19:19:10.211Z,72.47
2019-03-05T19:21:38.610Z,72.23
2019-03-05T19:24:26.132Z,72.11
2019-03-05T19:26:54.524Z,71.64
2019-03-05T19:29:22.917Z,71.66
2019-03-05T19:31:51.315Z,71.39
2019-03-05T19:34:38.984Z,71.04
2019-03-05T19:37:07.383Z,70.60
2019-03-05T19:39:55.021Z,70.59
2019-03-05T19:42:42.675Z,70.55
2019-03-05T19:50:51.803Z,70.67
2019-03-05T19:53:39.328Z,71.34
2019-03-05T19:56:07.712Z,71.56
2019-03-05T20:04:25.790Z,71.54
2019-03-05T20:07:13.346Z,71.49
2019-03-05T20:12:31.226Z,72.11
2019-03-05T20:15:18.497Z,72.40
2019-03-05T20:17:48.619Z,72.50
2019-03-05T20:20:56.918Z,72.66
2019-03-05T20:23:44.647Z,72.41
2019-03-05T20:26:13.041Z,72.64
2019-03-05T20:28:41.789Z,72.37
2019-03-05T20:31:10.177Z,72.33
2019-03-05T20:36:12.885Z,72.86
2019-03-05T20:38:53.786Z,72.91
2019-03-05T20:41:22.183Z,72.95
2019-03-05T20:44:09.835Z,73.25
2019-03-05T20:46:57.346Z,73.49
2019-03-05T20:49:44.941Z,73.74
2019-03-05T20:55:00.772Z,74.98
2019-03-05T20:57:29.171Z,76.42
2019-03-05T20:59:57.585Z,76.55
2019-03-05T21:02:25.992Z,76.44
2019-03-05T21:05:13.493Z,76.54
2019-03-05T21:08:01.043Z,77.20
2019-03-05T21:10:48.684Z,77.68
2019-03-05T21:13:36.332Z,77.81
2019-03-05T21:16:24.064Z,77.40
2019-03-05T21:18:52.478Z,76.62
2019-03-05T21:21:40.115Z,75.73
2019-03-05T21:24:08.525Z,75.12
2019-03-05T21:26:38.642Z,75.51
2019-03-05T21:29:26.291Z,75.29
2019-03-05T21:31:54.681Z,75.04
2019-03-05T21:34:42.193Z,75.30
2019-03-05T21:40:44.681Z,75.38
2019-03-05T21:43:13.080Z,75.84
2019-03-05T21:46:21.384Z,76.15
2019-03-05T21:48:49.781Z,76.58
2019-03-05T21:51:37.422Z,76.54
2019-03-05T21:54:25.149Z,77.18
2019-03-05T21:57:12.785Z,77.27
2019-03-05T22:00:00.434Z,77.94
2019-03-05T22:02:28.828Z,78.00
2019-03-05T22:04:58.951Z,77.68
2019-03-05T22:10:54.702Z,77.85
2019-03-05T22:13:23.106Z,77.76
2019-03-05T22:15:51.484Z,77.76
2019-03-05T22:18:39.003Z,77.73
2019-03-05T22:21:26.509Z,77.58
2019-03-05T22:23:54.911Z,77.46
2019-03-05T22:26:25.029Z,77.24
2019-03-05T22:28:53.425Z,76.80
2019-03-05T22:31:41.169Z,76.64
2019-03-05T22:34:09.570Z,76.15
2019-03-05T22:36:37.963Z,75.41
2019-03-05T22:39:46.281Z,74.82
2019-03-05T22:42:33.791Z,74.21
2019-03-05T22:45:02.192Z,73.77
2019-03-05T22:47:49.745Z,73.86
2019-03-05T22:50:58.023Z,74.05
2019-03-05T22:56:21.789Z,74.04
2019-03-05T22:58:50.191Z,74.16
2019-03-05T23:02:00.218Z,74.05
2019-03-05T23:05:08.536Z,73.85
2019-03-05T23:07:56.346Z,74.39
2019-03-05T23:10:24.747Z,75.22
2019-03-05T23:13:33.064Z,75.42
2019-03-05T23:16:43.097Z,76.62
2019-03-05T23:19:11.503Z,77.41
2019-03-05T23:22:19.884Z,77.45
2019-03-05T23:24:48.292Z,77.44
2019-03-05T23:27:18.414Z,77.24
2019-03-05T23:30:06.064Z,76.61
2019-03-05T23:32:34.465Z,76.73
2019-03-05T23:37:36.611Z,76.15
2019-03-05T23:40:44.922Z,76.21
2019-03-05T23:43:13.316Z,75.75
2019-03-05T23:48:54.414Z,76.42
2019-03-05T23:51:22.813Z,76.63
2019-03-05T23:54:10.469Z,76.91
2019-03-05T23:56:40.578Z,76.36
2019-03-05T23:59:08.978Z,76.80
